sensor_id;sensor_type;location;lat;lon;timestamp;temperature;humidity
51733;DHT22;39139;53.144;6.244;2022-10-16T00:00:56;12.10;99.90
51733;DHT22;39139;53.144;6.244;2022-10-16T00:03:22;12.00;99.90
51733;DHT22;39139;53.144;6.244;2022-10-16T00:05:48;12.10;99.90
51733;DHT22;39139;53.144;6.244;2022-10-16T00:08:14;12.20;99.90
51733;DHT22;39139;53.144;6.244;2022-10-16T00:10:40;12.20;99.90
51733;DHT22;39139;53.144;6.244;2022-10-16T00:13:06;13.20;99.90
51733;DHT22;39139;53.144;6.244;2022-10-16T00:15:36;12.00;99.90
51733;DHT22;39139;53.144;6.244;2022-10-16T00:18:03;12.00;99.90
51733;DHT22;39139;53.144;6.244;2022-10-16T00:20:29;12.00;99.90
51733;DHT22;39139;53.144;6.244;2022-10-16T00:22:56;12.20;99.90
51733;DHT22;39139;53.144;6.244;2022-10-16T00:25:23;12.10;99.90
51733;DHT22;39139;53.144;6.244;2022-10-16T00:27:48;12.20;99.90
51733;DHT22;39139;53.144;6.244;2022-10-16T00:30:14;12.00;99.90
51733;DHT22;39139;53.144;6.244;2022-10-16T00:32:40;12.20;99.90
51733;DHT22;39139;53.144;6.244;2022-10-16T00:35:06;12.90;99.90
51733;DHT22;39139;53.144;6.244;2022-10-16T00:37:31;11.90;99.90
51733;DHT22;39139;53.144;6.244;2022-10-16T00:39:57;12.00;99.90
51733;DHT22;39139;53.144;6.244;2022-10-16T00:42:23;12.20;99.90
51733;DHT22;39139;53.144;6.244;2022-10-16T00:44:51;12.20;99.90
51733;DHT22;39139;53.144;6.244;2022-10-16T00:47:39;12.00;99.90
51733;DHT22;39139;53.144;6.244;2022-10-16T00:52:39;12.00;99.90
51733;DHT22;39139;53.144;6.244;2022-10-16T00:55:08;12.20;99.90
51733;DHT22;39139;53.144;6.244;2022-10-16T00:57:34;12.10;99.90
51733;DHT22;39139;53.144;6.244;2022-10-16T01:00:02;12.10;99.90
51733;DHT22;39139;53.144;6.244;2022-10-16T01:02:28;12.30;99.90
51733;DHT22;39139;53.144;6.244;2022-10-16T01:04:54;12.20;99.90
51733;DHT22;39139;53.144;6.244;2022-10-16T01:10:17;12.20;99.90
51733;DHT22;39139;53.144;6.244;2022-10-16T01:13:00;12.30;99.90
51733;DHT22;39139;53.144;6.244;2022-10-16T01:18:01;12.30;99.90
51733;DHT22;39139;53.144;6.244;2022-10-16T01:25:39;12.20;99.90
51733;DHT22;39139;53.144;6.244;2022-10-16T01:28:13;12.30;99.90
51733;DHT22;39139;53.144;6.244;2022-10-16T01:30:42;12.30;99.90
51733;DHT22;39139;53.144;6.244;2022-10-16T01:33:20;12.30;99.90
51733;DHT22;39139;53.144;6.244;2022-10-16T01:35:52;12.30;99.90
51733;DHT22;39139;53.144;6.244;2022-10-16T01:38:34;12.30;99.90
51733;DHT22;39139;53.144;6.244;2022-10-16T01:41:15;12.20;99.90
51733;DHT22;39139;53.144;6.244;2022-10-16T01:43:49;12.20;99.90
51733;DHT22;39139;53.144;6.244;2022-10-16T01:46:19;12.30;99.90
51733;DHT22;39139;53.144;6.244;2022-10-16T01:48:47;12.40;99.90
51733;DHT22;39139;53.144;6.244;2022-10-16T01:51:15;12.20;99.90
51733;DHT22;39139;53.144;6.244;2022-10-16T01:53:45;12.30;99.90
51733;DHT22;39139;53.144;6.244;2022-10-16T01:56:13;12.40;99.90
51733;DHT22;39139;53.144;6.244;2022-10-16T01:58:49;12.30;99.90
51733;DHT22;39139;53.144;6.244;2022-10-16T02:01:19;12.90;99.90
51733;DHT22;39139;53.144;6.244;2022-10-16T02:03:51;12.50;99.90
51733;DHT22;39139;53.144;6.244;2022-10-16T02:06:18;12.50;99.90
51733;DHT22;39139;53.144;6.244;2022-10-16T02:08:43;12.50;99.90
51733;DHT22;39139;53.144;6.244;2022-10-16T02:11:10;12.30;99.90
51733;DHT22;39139;53.144;6.244;2022-10-16T02:13:45;12.40;99.90
51733;DHT22;39139;53.144;6.244;2022-10-16T02:16:13;12.50;99.90
51733;DHT22;39139;53.144;6.244;2022-10-16T02:18:39;12.50;99.90
51733;DHT22;39139;53.144;6.244;2022-10-16T02:26:15;12.50;99.90
51733;DHT22;39139;53.144;6.244;2022-10-16T02:28:45;12.50;99.90
51733;DHT22;39139;53.144;6.244;2022-10-16T02:31:16;12.40;99.90
51733;DHT22;39139;53.144;6.244;2022-10-16T02:33:45;12.50;99.90
51733;DHT22;39139;53.144;6.244;2022-10-16T02:36:11;12.50;99.90
51733;DHT22;39139;53.144;6.244;2022-10-16T02:38:38;12.60;99.90
51733;DHT22;39139;53.144;6.244;2022-10-16T02:41:06;12.50;99.90
51733;DHT22;39139;53.144;6.244;2022-10-16T02:43:32;12.50;99.90
51733;DHT22;39139;53.144;6.244;2022-10-16T02:45:59;12.50;99.90
51733;DHT22;39139;53.144;6.244;2022-10-16T02:48:25;12.40;99.90
51733;DHT22;39139;53.144;6.244;2022-10-16T02:50:50;12.60;99.90
51733;DHT22;39139;53.144;6.244;2022-10-16T02:53:16;12.30;99.90
51733;DHT22;39139;53.144;6.244;2022-10-16T02:55:42;12.40;99.90
51733;DHT22;39139;53.144;6.244;2022-10-16T02:58:07;12.20;99.90
51733;DHT22;39139;53.144;6.244;2022-10-16T03:00:33;12.30;99.90
51733;DHT22;39139;53.144;6.244;2022-10-16T03:02:59;12.30;99.90
51733;DHT22;39139;53.144;6.244;2022-10-16T03:05:24;12.30;99.90
51733;DHT22;39139;53.144;6.244;2022-10-16T03:07:50;12.20;99.90
51733;DHT22;39139;53.144;6.244;2022-10-16T03:10:15;12.10;99.90
51733;DHT22;39139;53.144;6.244;2022-10-16T03:12:41;12.20;99.90
51733;DHT22;39139;53.144;6.244;2022-10-16T03:15:07;12.20;99.90
51733;DHT22;39139;53.144;6.244;2022-10-16T03:17:33;12.10;99.90
51733;DHT22;39139;53.144;6.244;2022-10-16T03:19:59;12.10;99.90
51733;DHT22;39139;53.144;6.244;2022-10-16T03:22:24;12.20;99.90
51733;DHT22;39139;53.144;6.244;2022-10-16T03:24:50;12.10;99.90
51733;DHT22;39139;53.144;6.244;2022-10-16T03:27:16;12.20;99.90
51733;DHT22;39139;53.144;6.244;2022-10-16T03:29:41;12.20;99.90
51733;DHT22;39139;53.144;6.244;2022-10-16T03:32:07;12.10;99.90
51733;DHT22;39139;53.144;6.244;2022-10-16T03:34:32;12.00;99.90
51733;DHT22;39139;53.144;6.244;2022-10-16T03:36:58;12.10;99.90
51733;DHT22;39139;53.144;6.244;2022-10-16T03:39:24;12.20;99.90
51733;DHT22;39139;53.144;6.244;2022-10-16T03:41:49;12.30;99.90
51733;DHT22;39139;53.144;6.244;2022-10-16T03:44:15;12.30;99.90
51733;DHT22;39139;53.144;6.244;2022-10-16T03:46:41;12.20;99.90
51733;DHT22;39139;53.144;6.244;2022-10-16T03:49:06;12.10;99.90
51733;DHT22;39139;53.144;6.244;2022-10-16T03:51:32;12.10;99.90
51733;DHT22;39139;53.144;6.244;2022-10-16T03:53:58;12.10;99.90
51733;DHT22;39139;53.144;6.244;2022-10-16T03:56:23;12.10;99.90
51733;DHT22;39139;53.144;6.244;2022-10-16T03:58:49;12.00;99.90
51733;DHT22;39139;53.144;6.244;2022-10-16T04:01:15;12.00;99.90
51733;DHT22;39139;53.144;6.244;2022-10-16T04:03:40;12.00;99.90
51733;DHT22;39139;53.144;6.244;2022-10-16T04:06:06;12.00;99.90
51733;DHT22;39139;53.144;6.244;2022-10-16T04:08:32;12.00;99.90
51733;DHT22;39139;53.144;6.244;2022-10-16T04:11:00;12.00;99.90
51733;DHT22;39139;53.144;6.244;2022-10-16T04:13:26;12.00;99.90
51733;DHT22;39139;53.144;6.244;2022-10-16T04:15:52;11.90;99.90
51733;DHT22;39139;53.144;6.244;2022-10-16T04:18:17;12.10;99.90
51733;DHT22;39139;53.144;6.244;2022-10-16T04:20:43;12.10;99.90
51733;DHT22;39139;53.144;6.244;2022-10-16T04:23:09;12.00;99.90
51733;DHT22;39139;53.144;6.244;2022-10-16T04:25:34;12.10;99.90
51733;DHT22;39139;53.144;6.244;2022-10-16T04:28:00;12.00;99.90
51733;DHT22;39139;53.144;6.244;2022-10-16T04:30:26;12.10;99.90
51733;DHT22;39139;53.144;6.244;2022-10-16T04:32:52;12.10;99.90
51733;DHT22;39139;53.144;6.244;2022-10-16T04:35:18;12.10;99.90
51733;DHT22;39139;53.144;6.244;2022-10-16T04:37:44;12.20;99.90
51733;DHT22;39139;53.144;6.244;2022-10-16T04:40:10;12.20;99.90
51733;DHT22;39139;53.144;6.244;2022-10-16T04:42:36;12.40;99.90
51733;DHT22;39139;53.144;6.244;2022-10-16T04:45:03;12.30;99.90
51733;DHT22;39139;53.144;6.244;2022-10-16T04:47:28;12.30;99.90
51733;DHT22;39139;53.144;6.244;2022-10-16T04:49:54;12.40;99.90
51733;DHT22;39139;53.144;6.244;2022-10-16T04:52:20;12.40;99.90
51733;DHT22;39139;53.144;6.244;2022-10-16T04:54:46;12.30;99.90
51733;DHT22;39139;53.144;6.244;2022-10-16T04:57:12;12.30;99.90
51733;DHT22;39139;53.144;6.244;2022-10-16T04:59:38;12.30;99.90
51733;DHT22;39139;53.144;6.244;2022-10-16T05:02:04;12.30;99.90
51733;DHT22;39139;53.144;6.244;2022-10-16T05:04:29;12.40;99.90
51733;DHT22;39139;53.144;6.244;2022-10-16T05:06:55;12.40;99.90
51733;DHT22;39139;53.144;6.244;2022-10-16T05:09:20;12.50;99.90
51733;DHT22;39139;53.144;6.244;2022-10-16T05:11:46;12.50;99.90
51733;DHT22;39139;53.144;6.244;2022-10-16T05:14:12;12.90;99.90
51733;DHT22;39139;53.144;6.244;2022-10-16T05:16:37;12.50;99.90
51733;DHT22;39139;53.144;6.244;2022-10-16T05:19:03;12.50;99.90
51733;DHT22;39139;53.144;6.244;2022-10-16T05:21:29;12.20;99.90
51733;DHT22;39139;53.144;6.244;2022-10-16T05:23:54;12.40;99.90
51733;DHT22;39139;53.144;6.244;2022-10-16T05:26:20;12.50;99.90
51733;DHT22;39139;53.144;6.244;2022-10-16T05:28:46;12.40;99.90
51733;DHT22;39139;53.144;6.244;2022-10-16T05:31:12;11.80;99.90
51733;DHT22;39139;53.144;6.244;2022-10-16T05:33:37;12.30;99.90
51733;DHT22;39139;53.144;6.244;2022-10-16T05:36:05;12.30;99.90
51733;DHT22;39139;53.144;6.244;2022-10-16T05:38:31;12.50;99.90
51733;DHT22;39139;53.144;6.244;2022-10-16T05:40:57;12.50;99.90
51733;DHT22;39139;53.144;6.244;2022-10-16T05:43:23;12.50;99.90
51733;DHT22;39139;53.144;6.244;2022-10-16T05:46:00;12.40;99.90
51733;DHT22;39139;53.144;6.244;2022-10-16T05:48:26;12.40;99.90
51733;DHT22;39139;53.144;6.244;2022-10-16T05:51:00;12.50;99.90
51733;DHT22;39139;53.144;6.244;2022-10-16T05:53:31;12.50;99.90
51733;DHT22;39139;53.144;6.244;2022-10-16T05:55:58;12.40;99.90
51733;DHT22;39139;53.144;6.244;2022-10-16T05:58:24;12.40;99.90
51733;DHT22;39139;53.144;6.244;2022-10-16T06:00:56;12.50;99.90
51733;DHT22;39139;53.144;6.244;2022-10-16T06:03:22;12.30;99.90
51733;DHT22;39139;53.144;6.244;2022-10-16T06:05:48;12.30;99.90
51733;DHT22;39139;53.144;6.244;2022-10-16T06:08:14;12.40;99.90
51733;DHT22;39139;53.144;6.244;2022-10-16T06:10:40;12.50;99.90
51733;DHT22;39139;53.144;6.244;2022-10-16T06:13:06;13.30;99.90
51733;DHT22;39139;53.144;6.244;2022-10-16T06:15:31;12.40;99.90
51733;DHT22;39139;53.144;6.244;2022-10-16T06:17:57;12.60;99.90
51733;DHT22;39139;53.144;6.244;2022-10-16T06:20:23;12.40;99.90
51733;DHT22;39139;53.144;6.244;2022-10-16T06:22:48;12.50;99.90
51733;DHT22;39139;53.144;6.244;2022-10-16T06:25:14;12.40;99.90
51733;DHT22;39139;53.144;6.244;2022-10-16T06:27:40;12.40;99.90
51733;DHT22;39139;53.144;6.244;2022-10-16T06:30:07;12.60;99.90
51733;DHT22;39139;53.144;6.244;2022-10-16T06:32:33;12.40;99.90
51733;DHT22;39139;53.144;6.244;2022-10-16T06:34:58;12.50;99.90
51733;DHT22;39139;53.144;6.244;2022-10-16T06:37:24;12.50;99.90
51733;DHT22;39139;53.144;6.244;2022-10-16T06:39:50;12.50;99.90
51733;DHT22;39139;53.144;6.244;2022-10-16T06:42:19;12.60;99.90
51733;DHT22;39139;53.144;6.244;2022-10-16T06:44:45;12.50;99.90
51733;DHT22;39139;53.144;6.244;2022-10-16T06:47:10;12.60;99.90
51733;DHT22;39139;53.144;6.244;2022-10-16T06:49:36;12.70;99.90
51733;DHT22;39139;53.144;6.244;2022-10-16T06:52:02;12.60;99.90
51733;DHT22;39139;53.144;6.244;2022-10-16T06:54:28;12.70;99.90
51733;DHT22;39139;53.144;6.244;2022-10-16T06:56:54;12.50;99.90
51733;DHT22;39139;53.144;6.244;2022-10-16T06:59:20;12.80;99.90
51733;DHT22;39139;53.144;6.244;2022-10-16T07:01:46;12.70;99.90
51733;DHT22;39139;53.144;6.244;2022-10-16T07:04:12;12.70;99.90
51733;DHT22;39139;53.144;6.244;2022-10-16T07:06:37;12.60;99.90
51733;DHT22;39139;53.144;6.244;2022-10-16T07:09:06;12.80;99.90
51733;DHT22;39139;53.144;6.244;2022-10-16T07:11:32;12.80;99.90
51733;DHT22;39139;53.144;6.244;2022-10-16T07:13:58;12.80;99.90
51733;DHT22;39139;53.144;6.244;2022-10-16T07:16:29;12.70;99.90
51733;DHT22;39139;53.144;6.244;2022-10-16T07:18:56;12.80;99.90
51733;DHT22;39139;53.144;6.244;2022-10-16T07:21:27;12.70;99.90
51733;DHT22;39139;53.144;6.244;2022-10-16T07:23:56;12.90;99.90
51733;DHT22;39139;53.144;6.244;2022-10-16T07:26:23;12.80;99.90
51733;DHT22;39139;53.144;6.244;2022-10-16T07:28:49;12.80;99.90
51733;DHT22;39139;53.144;6.244;2022-10-16T07:31:17;12.70;99.90
51733;DHT22;39139;53.144;6.244;2022-10-16T07:33:44;12.80;99.90
51733;DHT22;39139;53.144;6.244;2022-10-16T07:36:11;12.80;99.90
51733;DHT22;39139;53.144;6.244;2022-10-16T07:38:37;12.80;99.90
51733;DHT22;39139;53.144;6.244;2022-10-16T07:41:09;12.80;99.90
51733;DHT22;39139;53.144;6.244;2022-10-16T07:43:35;12.80;99.90
51733;DHT22;39139;53.144;6.244;2022-10-16T07:46:01;12.60;99.90
51733;DHT22;39139;53.144;6.244;2022-10-16T07:48:29;12.80;99.90
51733;DHT22;39139;53.144;6.244;2022-10-16T07:50:58;12.80;99.90
51733;DHT22;39139;53.144;6.244;2022-10-16T07:53:24;12.40;99.90
51733;DHT22;39139;53.144;6.244;2022-10-16T07:55:50;12.80;99.90
51733;DHT22;39139;53.144;6.244;2022-10-16T07:58:16;12.60;99.90
51733;DHT22;39139;53.144;6.244;2022-10-16T08:00:41;12.80;99.90
51733;DHT22;39139;53.144;6.244;2022-10-16T08:03:08;12.80;99.90
51733;DHT22;39139;53.144;6.244;2022-10-16T08:05:33;12.90;99.90
51733;DHT22;39139;53.144;6.244;2022-10-16T08:08:01;13.00;99.90
51733;DHT22;39139;53.144;6.244;2022-10-16T08:10:28;12.90;99.90
51733;DHT22;39139;53.144;6.244;2022-10-16T08:12:54;13.00;99.90
51733;DHT22;39139;53.144;6.244;2022-10-16T08:15:20;13.20;99.90
51733;DHT22;39139;53.144;6.244;2022-10-16T08:18:03;13.30;99.90
51733;DHT22;39139;53.144;6.244;2022-10-16T08:20:29;13.30;99.90
51733;DHT22;39139;53.144;6.244;2022-10-16T08:22:55;13.40;99.90
51733;DHT22;39139;53.144;6.244;2022-10-16T08:25:22;13.40;99.90
51733;DHT22;39139;53.144;6.244;2022-10-16T08:27:48;13.80;99.90
51733;DHT22;39139;53.144;6.244;2022-10-16T08:30:14;14.20;99.90
51733;DHT22;39139;53.144;6.244;2022-10-16T08:32:40;14.20;99.90
51733;DHT22;39139;53.144;6.244;2022-10-16T08:35:08;14.40;99.90
51733;DHT22;39139;53.144;6.244;2022-10-16T08:37:34;14.20;99.90
51733;DHT22;39139;53.144;6.244;2022-10-16T08:40:00;14.30;99.90
51733;DHT22;39139;53.144;6.244;2022-10-16T08:48:41;14.60;99.90
51733;DHT22;39139;53.144;6.244;2022-10-16T08:51:11;14.70;99.90
51733;DHT22;39139;53.144;6.244;2022-10-16T08:53:52;14.80;99.90
51733;DHT22;39139;53.144;6.244;2022-10-16T08:56:19;14.90;99.90
51733;DHT22;39139;53.144;6.244;2022-10-16T08:58:46;14.80;99.90
51733;DHT22;39139;53.144;6.244;2022-10-16T09:01:14;14.90;99.90
51733;DHT22;39139;53.144;6.244;2022-10-16T09:06:50;14.80;99.90
51733;DHT22;39139;53.144;6.244;2022-10-16T09:09:24;14.90;99.90
51733;DHT22;39139;53.144;6.244;2022-10-16T09:12:26;14.90;99.90
51733;DHT22;39139;53.144;6.244;2022-10-16T09:18:09;15.40;99.90
51733;DHT22;39139;53.144;6.244;2022-10-16T09:20:57;15.40;99.90
51733;DHT22;39139;53.144;6.244;2022-10-16T09:23:29;15.50;99.90
51733;DHT22;39139;53.144;6.244;2022-10-16T09:25:56;15.40;99.90
51733;DHT22;39139;53.144;6.244;2022-10-16T09:28:23;15.40;99.90
51733;DHT22;39139;53.144;6.244;2022-10-16T09:30:49;15.50;99.90
51733;DHT22;39139;53.144;6.244;2022-10-16T09:33:16;15.70;99.90
51733;DHT22;39139;53.144;6.244;2022-10-16T09:35:44;15.70;99.90
51733;DHT22;39139;53.144;6.244;2022-10-16T09:38:22;15.60;99.90
51733;DHT22;39139;53.144;6.244;2022-10-16T09:40:47;15.60;99.90
51733;DHT22;39139;53.144;6.244;2022-10-16T09:43:39;15.60;99.90
51733;DHT22;39139;53.144;6.244;2022-10-16T09:46:08;15.70;99.90
51733;DHT22;39139;53.144;6.244;2022-10-16T09:48:39;15.90;99.90
51733;DHT22;39139;53.144;6.244;2022-10-16T09:51:23;16.10;99.90
51733;DHT22;39139;53.144;6.244;2022-10-16T09:53:53;16.30;99.90
51733;DHT22;39139;53.144;6.244;2022-10-16T09:56:28;16.40;99.90
51733;DHT22;39139;53.144;6.244;2022-10-16T09:58:57;16.60;99.90
51733;DHT22;39139;53.144;6.244;2022-10-16T10:01:36;16.80;99.90
51733;DHT22;39139;53.144;6.244;2022-10-16T10:04:03;17.00;99.90
51733;DHT22;39139;53.144;6.244;2022-10-16T10:06:32;17.20;99.90
51733;DHT22;39139;53.144;6.244;2022-10-16T10:09:00;17.40;99.90
51733;DHT22;39139;53.144;6.244;2022-10-16T10:11:44;17.60;99.90
51733;DHT22;39139;53.144;6.244;2022-10-16T10:16:51;18.00;99.90
51733;DHT22;39139;53.144;6.244;2022-10-16T10:19:23;18.00;99.90
51733;DHT22;39139;53.144;6.244;2022-10-16T10:21:50;18.10;99.90
51733;DHT22;39139;53.144;6.244;2022-10-16T10:24:18;18.20;99.90
51733;DHT22;39139;53.144;6.244;2022-10-16T10:26:54;18.50;99.90
51733;DHT22;39139;53.144;6.244;2022-10-16T10:29:27;18.60;99.90
51733;DHT22;39139;53.144;6.244;2022-10-16T10:32:17;18.80;99.90
51733;DHT22;39139;53.144;6.244;2022-10-16T10:40:52;18.90;99.90
51733;DHT22;39139;53.144;6.244;2022-10-16T10:46:41;18.90;99.90
51733;DHT22;39139;53.144;6.244;2022-10-16T10:52:02;18.70;99.90
51733;DHT22;39139;53.144;6.244;2022-10-16T11:03:20;18.30;99.90
51733;DHT22;39139;53.144;6.244;2022-10-16T11:05:52;18.10;99.90
51733;DHT22;39139;53.144;6.244;2022-10-16T11:08:29;17.80;99.90
51733;DHT22;39139;53.144;6.244;2022-10-16T11:11:04;17.70;99.90
51733;DHT22;39139;53.144;6.244;2022-10-16T11:16:30;17.50;99.90
51733;DHT22;39139;53.144;6.244;2022-10-16T11:21:36;17.20;99.90
51733;DHT22;39139;53.144;6.244;2022-10-16T11:24:10;17.20;99.90
51733;DHT22;39139;53.144;6.244;2022-10-16T11:26:41;17.00;99.90
51733;DHT22;39139;53.144;6.244;2022-10-16T11:29:19;16.90;99.90
51733;DHT22;39139;53.144;6.244;2022-10-16T11:31:55;16.80;99.90
51733;DHT22;39139;53.144;6.244;2022-10-16T11:34:44;16.80;99.90
51733;DHT22;39139;53.144;6.244;2022-10-16T11:37:19;16.90;99.90
51733;DHT22;39139;53.144;6.244;2022-10-16T11:39:46;17.10;99.90
51733;DHT22;39139;53.144;6.244;2022-10-16T11:42:37;17.20;99.90
51733;DHT22;39139;53.144;6.244;2022-10-16T11:45:32;17.40;99.90
51733;DHT22;39139;53.144;6.244;2022-10-16T11:48:27;17.60;99.90
51733;DHT22;39139;53.144;6.244;2022-10-16T11:51:25;17.70;99.90
51733;DHT22;39139;53.144;6.244;2022-10-16T11:56:46;17.80;99.90
51733;DHT22;39139;53.144;6.244;2022-10-16T11:59:25;17.80;99.90
51733;DHT22;39139;53.144;6.244;2022-10-16T12:04:45;17.90;99.90
51733;DHT22;39139;53.144;6.244;2022-10-16T12:07:17;17.80;99.90
51733;DHT22;39139;53.144;6.244;2022-10-16T12:09:44;17.70;99.90
51733;DHT22;39139;53.144;6.244;2022-10-16T12:15:25;17.50;99.90
51733;DHT22;39139;53.144;6.244;2022-10-16T12:17:50;17.40;99.90
51733;DHT22;39139;53.144;6.244;2022-10-16T12:20:28;17.50;99.90
51733;DHT22;39139;53.144;6.244;2022-10-16T12:23:01;17.50;99.90
51733;DHT22;39139;53.144;6.244;2022-10-16T12:28:20;17.20;99.90
51733;DHT22;39139;53.144;6.244;2022-10-16T12:31:00;17.00;99.90
51733;DHT22;39139;53.144;6.244;2022-10-16T12:33:59;17.00;99.90
51733;DHT22;39139;53.144;6.244;2022-10-16T12:38:54;17.10;99.90
51733;DHT22;39139;53.144;6.244;2022-10-16T12:41:33;17.10;99.90
51733;DHT22;39139;53.144;6.244;2022-10-16T12:44:20;17.00;99.90
51733;DHT22;39139;53.144;6.244;2022-10-16T12:46:46;17.10;99.90
51733;DHT22;39139;53.144;6.244;2022-10-16T12:51:38;17.10;99.90
51733;DHT22;39139;53.144;6.244;2022-10-16T12:59:52;17.10;99.90
51733;DHT22;39139;53.144;6.244;2022-10-16T13:08:40;17.20;99.90
51733;DHT22;39139;53.144;6.244;2022-10-16T13:11:23;17.10;99.90
51733;DHT22;39139;53.144;6.244;2022-10-16T13:22:05;16.60;99.90
51733;DHT22;39139;53.144;6.244;2022-10-16T13:30:11;16.40;99.90
51733;DHT22;39139;53.144;6.244;2022-10-16T13:32:37;16.30;99.90
51733;DHT22;39139;53.144;6.244;2022-10-16T13:35:19;16.20;99.90
51733;DHT22;39139;53.144;6.244;2022-10-16T13:37:44;16.20;99.90
51733;DHT22;39139;53.144;6.244;2022-10-16T13:40:24;16.20;99.90
51733;DHT22;39139;53.144;6.244;2022-10-16T13:42:51;16.20;99.90
51733;DHT22;39139;53.144;6.244;2022-10-16T13:45:23;16.20;99.90
51733;DHT22;39139;53.144;6.244;2022-10-16T13:47:49;16.30;99.90
51733;DHT22;39139;53.144;6.244;2022-10-16T13:50:18;16.30;99.90
51733;DHT22;39139;53.144;6.244;2022-10-16T13:52:44;16.40;99.90
51733;DHT22;39139;53.144;6.244;2022-10-16T13:55:17;16.40;99.90
51733;DHT22;39139;53.144;6.244;2022-10-16T13:57:43;16.30;99.90
51733;DHT22;39139;53.144;6.244;2022-10-16T14:00:24;16.30;99.90
51733;DHT22;39139;53.144;6.244;2022-10-16T14:03:03;16.30;99.90
51733;DHT22;39139;53.144;6.244;2022-10-16T14:05:29;16.20;99.90
51733;DHT22;39139;53.144;6.244;2022-10-16T14:07:55;16.30;99.90
51733;DHT22;39139;53.144;6.244;2022-10-16T14:10:24;16.20;99.90
51733;DHT22;39139;53.144;6.244;2022-10-16T14:13:05;16.20;99.90
51733;DHT22;39139;53.144;6.244;2022-10-16T14:15:32;16.20;99.90
51733;DHT22;39139;53.144;6.244;2022-10-16T14:17:59;16.20;99.90
51733;DHT22;39139;53.144;6.244;2022-10-16T14:20:28;16.10;99.90
51733;DHT22;39139;53.144;6.244;2022-10-16T14:22:58;16.10;99.90
51733;DHT22;39139;53.144;6.244;2022-10-16T14:25:27;16.00;99.90
51733;DHT22;39139;53.144;6.244;2022-10-16T14:30:24;15.90;99.90
51733;DHT22;39139;53.144;6.244;2022-10-16T14:32:55;15.90;99.90
51733;DHT22;39139;53.144;6.244;2022-10-16T14:35:37;15.90;99.90
51733;DHT22;39139;53.144;6.244;2022-10-16T14:38:04;15.80;99.90
51733;DHT22;39139;53.144;6.244;2022-10-16T14:40:33;15.80;99.90
51733;DHT22;39139;53.144;6.244;2022-10-16T14:43:01;15.70;99.90
51733;DHT22;39139;53.144;6.244;2022-10-16T14:45:30;15.70;99.90
51733;DHT22;39139;53.144;6.244;2022-10-16T14:48:00;15.70;99.90
51733;DHT22;39139;53.144;6.244;2022-10-16T14:50:26;15.60;99.90
51733;DHT22;39139;53.144;6.244;2022-10-16T14:52:53;15.50;99.90
51733;DHT22;39139;53.144;6.244;2022-10-16T14:55:19;15.50;99.90
51733;DHT22;39139;53.144;6.244;2022-10-16T14:57:45;14.90;99.90
51733;DHT22;39139;53.144;6.244;2022-10-16T15:00:20;15.50;99.90
51733;DHT22;39139;53.144;6.244;2022-10-16T15:02:47;15.40;99.90
51733;DHT22;39139;53.144;6.244;2022-10-16T15:05:20;15.40;99.90
51733;DHT22;39139;53.144;6.244;2022-10-16T15:07:48;15.40;99.90
51733;DHT22;39139;53.144;6.244;2022-10-16T15:10:16;15.30;99.90
51733;DHT22;39139;53.144;6.244;2022-10-16T15:12:42;15.40;99.90
51733;DHT22;39139;53.144;6.244;2022-10-16T15:17:53;15.20;99.90
51733;DHT22;39139;53.144;6.244;2022-10-16T15:20:25;15.20;99.90
51733;DHT22;39139;53.144;6.244;2022-10-16T15:22:52;15.10;99.90
51733;DHT22;39139;53.144;6.244;2022-10-16T15:25:29;15.00;99.90
51733;DHT22;39139;53.144;6.244;2022-10-16T15:27:55;15.00;99.90
51733;DHT22;39139;53.144;6.244;2022-10-16T15:30:21;15.00;99.90
51733;DHT22;39139;53.144;6.244;2022-10-16T15:32:47;14.90;99.90
51733;DHT22;39139;53.144;6.244;2022-10-16T15:35:12;14.80;99.90
51733;DHT22;39139;53.144;6.244;2022-10-16T15:37:38;14.70;99.90
51733;DHT22;39139;53.144;6.244;2022-10-16T15:40:04;14.70;99.90
51733;DHT22;39139;53.144;6.244;2022-10-16T15:42:29;14.70;99.90
51733;DHT22;39139;53.144;6.244;2022-10-16T15:44:55;14.60;99.90
51733;DHT22;39139;53.144;6.244;2022-10-16T15:47:20;14.50;99.90
51733;DHT22;39139;53.144;6.244;2022-10-16T15:49:47;14.40;99.90
51733;DHT22;39139;53.144;6.244;2022-10-16T15:52:12;14.40;99.90
51733;DHT22;39139;53.144;6.244;2022-10-16T15:54:38;14.30;99.90
51733;DHT22;39139;53.144;6.244;2022-10-16T15:57:04;14.30;99.90
51733;DHT22;39139;53.144;6.244;2022-10-16T15:59:29;14.20;99.90
51733;DHT22;39139;53.144;6.244;2022-10-16T16:01:55;14.10;99.90
51733;DHT22;39139;53.144;6.244;2022-10-16T16:04:21;14.00;99.90
51733;DHT22;39139;53.144;6.244;2022-10-16T16:06:47;14.00;99.90
51733;DHT22;39139;53.144;6.244;2022-10-16T16:09:14;13.90;99.90
51733;DHT22;39139;53.144;6.244;2022-10-16T16:11:39;13.80;99.90
51733;DHT22;39139;53.144;6.244;2022-10-16T16:14:06;13.80;99.90
51733;DHT22;39139;53.144;6.244;2022-10-16T16:16:32;13.60;99.90
51733;DHT22;39139;53.144;6.244;2022-10-16T16:19:06;13.60;99.90
51733;DHT22;39139;53.144;6.244;2022-10-16T16:21:33;13.50;99.90
51733;DHT22;39139;53.144;6.244;2022-10-16T16:23:59;13.40;99.90
51733;DHT22;39139;53.144;6.244;2022-10-16T16:26:29;13.60;99.90
51733;DHT22;39139;53.144;6.244;2022-10-16T16:28:59;13.30;99.90
51733;DHT22;39139;53.144;6.244;2022-10-16T16:31:29;13.20;99.90
51733;DHT22;39139;53.144;6.244;2022-10-16T16:33:56;13.10;99.90
51733;DHT22;39139;53.144;6.244;2022-10-16T16:36:22;13.00;99.90
51733;DHT22;39139;53.144;6.244;2022-10-16T16:38:48;13.00;99.90
51733;DHT22;39139;53.144;6.244;2022-10-16T16:41:19;12.90;99.90
51733;DHT22;39139;53.144;6.244;2022-10-16T16:43:46;12.90;99.90
51733;DHT22;39139;53.144;6.244;2022-10-16T16:46:14;12.90;99.90
51733;DHT22;39139;53.144;6.244;2022-10-16T16:48:40;12.80;99.90
51733;DHT22;39139;53.144;6.244;2022-10-16T16:51:08;12.80;99.90
51733;DHT22;39139;53.144;6.244;2022-10-16T16:53:35;12.70;99.90
51733;DHT22;39139;53.144;6.244;2022-10-16T16:56:05;12.50;99.90
51733;DHT22;39139;53.144;6.244;2022-10-16T16:58:32;12.40;99.90
51733;DHT22;39139;53.144;6.244;2022-10-16T17:00:58;12.50;99.90
51733;DHT22;39139;53.144;6.244;2022-10-16T17:03:34;12.50;99.90
51733;DHT22;39139;53.144;6.244;2022-10-16T17:06:06;12.40;99.90
51733;DHT22;39139;53.144;6.244;2022-10-16T17:08:33;12.30;99.90
51733;DHT22;39139;53.144;6.244;2022-10-16T17:10:59;12.30;99.90
51733;DHT22;39139;53.144;6.244;2022-10-16T17:13:26;12.30;99.90
51733;DHT22;39139;53.144;6.244;2022-10-16T17:15:53;12.10;99.90
51733;DHT22;39139;53.144;6.244;2022-10-16T17:18:20;12.10;99.90
51733;DHT22;39139;53.144;6.244;2022-10-16T17:20:46;12.00;99.90
51733;DHT22;39139;53.144;6.244;2022-10-16T17:23:13;12.10;99.90
51733;DHT22;39139;53.144;6.244;2022-10-16T17:25:39;12.00;99.90
51733;DHT22;39139;53.144;6.244;2022-10-16T17:28:06;11.90;99.90